sensor_id;sensor_type;location;lat;lon;timestamp;pressure;altitude;pressure_sealevel;temperature;humidity
66385;BME280;53426;55.872;37.462;2023-03-21T00:00:59;98842.41;;;4.41;54.60
66385;BME280;53426;55.872;37.462;2023-03-21T00:03:26;98839.97;;;4.38;54.56
66385;BME280;53426;55.872;37.462;2023-03-21T00:05:53;98838.53;;;4.34;54.72
66385;BME280;53426;55.872;37.462;2023-03-21T00:08:20;98831.19;;;4.39;54.70
66385;BME280;53426;55.872;37.462;2023-03-21T00:10:47;98831.41;;;4.36;54.48
66385;BME280;53426;55.872;37.462;2023-03-21T00:13:19;98826.97;;;4.37;55.16
66385;BME280;53426;55.872;37.462;2023-03-21T00:15:46;98837.16;;;4.41;54.87
66385;BME280;53426;55.872;37.462;2023-03-21T00:18:17;98824.91;;;4.42;54.67
66385;BME280;53426;55.872;37.462;2023-03-21T00:20:43;98818.81;;;4.41;54.51
66385;BME280;53426;55.872;37.462;2023-03-21T00:23:16;98831.03;;;4.53;54.60
66385;BME280;53426;55.872;37.462;2023-03-21T00:25:42;98823.81;;;4.57;54.36
66385;BME280;53426;55.872;37.462;2023-03-21T00:28:07;98817.50;;;4.59;54.65
66385;BME280;53426;55.872;37.462;2023-03-21T00:30:33;98813.72;;;4.63;54.73
66385;BME280;53426;55.872;37.462;2023-03-21T00:32:59;98813.00;;;4.61;54.37
66385;BME280;53426;55.872;37.462;2023-03-21T00:35:25;98802.84;;;4.57;54.66
66385;BME280;53426;55.872;37.462;2023-03-21T00:37:51;98795.56;;;4.60;54.11
66385;BME280;53426;55.872;37.462;2023-03-21T00:40:17;98779.56;;;4.52;54.56
66385;BME280;53426;55.872;37.462;2023-03-21T00:42:43;98796.50;;;4.59;54.77
66385;BME280;53426;55.872;37.462;2023-03-21T00:45:09;98802.69;;;4.58;54.43
66385;BME280;53426;55.872;37.462;2023-03-21T00:47:35;98791.34;;;4.47;55.08
66385;BME280;53426;55.872;37.462;2023-03-21T00:50:02;98791.84;;;4.52;54.58
66385;BME280;53426;55.872;37.462;2023-03-21T00:52:29;98799.56;;;4.53;54.88
66385;BME280;53426;55.872;37.462;2023-03-21T00:54:56;98772.66;;;4.39;54.71
66385;BME280;53426;55.872;37.462;2023-03-21T00:57:22;98777.06;;;4.38;55.01
66385;BME280;53426;55.872;37.462;2023-03-21T00:59:49;98784.19;;;4.49;55.15
66385;BME280;53426;55.872;37.462;2023-03-21T01:02:15;98787.03;;;4.46;55.08
66385;BME280;53426;55.872;37.462;2023-03-21T01:04:48;98753.50;;;4.26;55.28
66385;BME280;53426;55.872;37.462;2023-03-21T01:07:14;98715.63;;;4.06;55.25
66385;BME280;53426;55.872;37.462;2023-03-21T01:09:40;98759.59;;;4.26;55.70
66385;BME280;53426;55.872;37.462;2023-03-21T01:12:06;98790.41;;;4.35;55.74
66385;BME280;53426;55.872;37.462;2023-03-21T01:14:32;98780.56;;;4.26;55.84
66385;BME280;53426;55.872;37.462;2023-03-21T01:16:57;98773.56;;;4.14;56.41
66385;BME280;53426;55.872;37.462;2023-03-21T01:19:24;98778.34;;;4.20;56.10
66385;BME280;53426;55.872;37.462;2023-03-21T01:21:53;98774.59;;;4.24;56.13
66385;BME280;53426;55.872;37.462;2023-03-21T01:24:20;98774.19;;;4.30;56.08
66385;BME280;53426;55.872;37.462;2023-03-21T01:26:46;98765.88;;;4.36;56.05
66385;BME280;53426;55.872;37.462;2023-03-21T01:29:12;98766.91;;;4.34;55.99
66385;BME280;53426;55.872;37.462;2023-03-21T01:31:38;98756.13;;;4.26;56.19
66385;BME280;53426;55.872;37.462;2023-03-21T01:34:06;98753.22;;;4.17;56.36
66385;BME280;53426;55.872;37.462;2023-03-21T01:36:33;98756.47;;;4.21;56.20
66385;BME280;53426;55.872;37.462;2023-03-21T01:39:06;98758.56;;;4.16;56.50
66385;BME280;53426;55.872;37.462;2023-03-21T01:41:36;98758.28;;;4.08;56.50
66385;BME280;53426;55.872;37.462;2023-03-21T01:44:04;98757.44;;;4.07;57.09
66385;BME280;53426;55.872;37.462;2023-03-21T01:46:43;98763.09;;;4.14;56.40
66385;BME280;53426;55.872;37.462;2023-03-21T01:49:42;98764.75;;;4.15;56.43
66385;BME280;53426;55.872;37.462;2023-03-21T01:52:35;98761.00;;;4.19;56.46
66385;BME280;53426;55.872;37.462;2023-03-21T01:55:08;98756.69;;;4.18;56.75
66385;BME280;53426;55.872;37.462;2023-03-21T01:57:52;98756.59;;;4.19;56.44
66385;BME280;53426;55.872;37.462;2023-03-21T02:00:25;98759.09;;;4.21;56.20
66385;BME280;53426;55.872;37.462;2023-03-21T02:03:07;98756.47;;;4.21;56.57
66385;BME280;53426;55.872;37.462;2023-03-21T02:05:59;98755.09;;;4.15;56.54
66385;BME280;53426;55.872;37.462;2023-03-21T02:08:32;98758.13;;;4.22;56.79
66385;BME280;53426;55.872;37.462;2023-03-21T02:11:03;98745.06;;;4.09;56.28
66385;BME280;53426;55.872;37.462;2023-03-21T02:13:37;98753.31;;;4.16;56.33
66385;BME280;53426;55.872;37.462;2023-03-21T02:19:23;98750.59;;;4.30;55.43
66385;BME280;53426;55.872;37.462;2023-03-21T02:22:17;98749.19;;;4.37;55.82
66385;BME280;53426;55.872;37.462;2023-03-21T02:25:06;98746.38;;;4.40;55.77
66385;BME280;53426;55.872;37.462;2023-03-21T02:27:39;98743.84;;;4.39;56.13
66385;BME280;53426;55.872;37.462;2023-03-21T02:38:17;98716.44;;;4.19;55.60
66385;BME280;53426;55.872;37.462;2023-03-21T02:40:52;98736.31;;;4.34;55.91
66385;BME280;53426;55.872;37.462;2023-03-21T02:46:42;98730.75;;;4.26;55.88
66385;BME280;53426;55.872;37.462;2023-03-21T02:49:32;98716.81;;;4.26;55.62
66385;BME280;53426;55.872;37.462;2023-03-21T02:52:01;98725.22;;;4.31;55.08
66385;BME280;53426;55.872;37.462;2023-03-21T02:54:29;98714.22;;;4.26;55.57
66385;BME280;53426;55.872;37.462;2023-03-21T02:56:58;98731.81;;;4.36;54.82
66385;BME280;53426;55.872;37.462;2023-03-21T02:59:26;98690.78;;;4.11;55.43
66385;BME280;53426;55.872;37.462;2023-03-21T03:01:55;98724.16;;;4.33;55.28
66385;BME280;53426;55.872;37.462;2023-03-21T03:04:40;98737.25;;;4.33;54.87
66385;BME280;53426;55.872;37.462;2023-03-21T03:15:34;98721.31;;;4.36;55.01
66385;BME280;53426;55.872;37.462;2023-03-21T03:20:58;98716.13;;;4.24;55.15
66385;BME280;53426;55.872;37.462;2023-03-21T03:23:38;98705.22;;;4.17;54.77
66385;BME280;53426;55.872;37.462;2023-03-21T03:28:50;98695.06;;;4.25;54.88
66385;BME280;53426;55.872;37.462;2023-03-21T03:31:23;98701.50;;;4.32;54.85
66385;BME280;53426;55.872;37.462;2023-03-21T03:33:58;98701.81;;;4.40;54.44
66385;BME280;53426;55.872;37.462;2023-03-21T03:36:29;98694.88;;;4.39;54.40
66385;BME280;53426;55.872;37.462;2023-03-21T03:39:09;98678.59;;;4.23;54.13
66385;BME280;53426;55.872;37.462;2023-03-21T03:41:48;98707.25;;;4.37;54.39
66385;BME280;53426;55.872;37.462;2023-03-21T03:44:16;98703.41;;;4.30;54.59
66385;BME280;53426;55.872;37.462;2023-03-21T03:46:57;98699.53;;;4.36;54.74
66385;BME280;53426;55.872;37.462;2023-03-21T03:49:28;98695.56;;;4.30;54.61
66385;BME280;53426;55.872;37.462;2023-03-21T03:54:43;98675.69;;;4.39;53.97
66385;BME280;53426;55.872;37.462;2023-03-21T03:57:10;98679.41;;;4.36;54.02
66385;BME280;53426;55.872;37.462;2023-03-21T03:59:41;98689.66;;;4.39;54.35
66385;BME280;53426;55.872;37.462;2023-03-21T04:02:43;98687.75;;;4.41;53.81
66385;BME280;53426;55.872;37.462;2023-03-21T04:05:19;98655.63;;;4.27;54.14
66385;BME280;53426;55.872;37.462;2023-03-21T04:07:50;98651.72;;;4.32;53.75
66385;BME280;53426;55.872;37.462;2023-03-21T04:10:18;98690.09;;;4.57;53.39
66385;BME280;53426;55.872;37.462;2023-03-21T04:12:45;98687.59;;;4.55;53.33
66385;BME280;53426;55.872;37.462;2023-03-21T04:15:30;98659.53;;;4.45;53.45
66385;BME280;53426;55.872;37.462;2023-03-21T04:18:03;98679.13;;;4.52;53.30
66385;BME280;53426;55.872;37.462;2023-03-21T04:20:32;98672.91;;;4.53;53.33
66385;BME280;53426;55.872;37.462;2023-03-21T04:23:01;98673.75;;;4.53;53.31
66385;BME280;53426;55.872;37.462;2023-03-21T04:25:27;98680.66;;;4.54;53.81
66385;BME280;53426;55.872;37.462;2023-03-21T04:27:56;98677.38;;;4.63;53.26
66385;BME280;53426;55.872;37.462;2023-03-21T04:30:37;98651.13;;;4.52;53.44
66385;BME280;53426;55.872;37.462;2023-03-21T04:33:20;98666.22;;;4.73;52.58
66385;BME280;53426;55.872;37.462;2023-03-21T04:36:43;98655.19;;;4.56;53.17
66385;BME280;53426;55.872;37.462;2023-03-21T04:39:13;98658.00;;;4.77;52.80
66385;BME280;53426;55.872;37.462;2023-03-21T04:41:42;98679.56;;;4.81;52.56
66385;BME280;53426;55.872;37.462;2023-03-21T04:44:09;98671.41;;;4.85;52.54
66385;BME280;53426;55.872;37.462;2023-03-21T04:46:37;98680.59;;;4.91;52.58
66385;BME280;53426;55.872;37.462;2023-03-21T04:49:06;98672.19;;;4.86;52.65
66385;BME280;53426;55.872;37.462;2023-03-21T04:51:32;98687.28;;;4.95;52.49
66385;BME280;53426;55.872;37.462;2023-03-21T04:53:59;98685.50;;;4.95;51.90
66385;BME280;53426;55.872;37.462;2023-03-21T04:56:25;98653.34;;;4.81;52.31
66385;BME280;53426;55.872;37.462;2023-03-21T04:59:04;98682.44;;;5.13;51.60
66385;BME280;53426;55.872;37.462;2023-03-21T05:01:31;98653.41;;;5.03;51.94
66385;BME280;53426;55.872;37.462;2023-03-21T05:03:58;98668.69;;;5.09;51.59
66385;BME280;53426;55.872;37.462;2023-03-21T05:06:24;98672.50;;;5.05;52.43
66385;BME280;53426;55.872;37.462;2023-03-21T05:08:53;98673.53;;;4.91;53.04
66385;BME280;53426;55.872;37.462;2023-03-21T05:11:21;98679.38;;;4.84;53.02
66385;BME280;53426;55.872;37.462;2023-03-21T05:13:47;98669.03;;;4.70;53.70
66385;BME280;53426;55.872;37.462;2023-03-21T05:16:15;98650.66;;;4.58;53.62
66385;BME280;53426;55.872;37.462;2023-03-21T05:18:44;98678.16;;;4.53;53.94
66385;BME280;53426;55.872;37.462;2023-03-21T05:21:17;98673.25;;;4.48;54.35
66385;BME280;53426;55.872;37.462;2023-03-21T05:23:49;98650.50;;;4.25;54.55
66385;BME280;53426;55.872;37.462;2023-03-21T05:26:24;98667.03;;;4.26;54.32
66385;BME280;53426;55.872;37.462;2023-03-21T05:29:11;98677.16;;;4.43;54.06
66385;BME280;53426;55.872;37.462;2023-03-21T05:31:37;98676.00;;;4.47;54.13
66385;BME280;53426;55.872;37.462;2023-03-21T05:34:08;98653.50;;;4.32;53.85
66385;BME280;53426;55.872;37.462;2023-03-21T05:36:35;98675.66;;;4.51;54.34
66385;BME280;53426;55.872;37.462;2023-03-21T05:39:03;98679.78;;;4.43;54.10
66385;BME280;53426;55.872;37.462;2023-03-21T05:41:34;98681.41;;;4.56;53.79
66385;BME280;53426;55.872;37.462;2023-03-21T05:44:03;98658.47;;;4.47;54.09
66385;BME280;53426;55.872;37.462;2023-03-21T05:46:29;98684.06;;;4.68;54.07
66385;BME280;53426;55.872;37.462;2023-03-21T05:48:58;98674.53;;;4.67;53.64
66385;BME280;53426;55.872;37.462;2023-03-21T05:51:24;98673.34;;;4.71;53.77
66385;BME280;53426;55.872;37.462;2023-03-21T05:53:50;98643.56;;;4.72;53.91
66385;BME280;53426;55.872;37.462;2023-03-21T05:56:16;98675.03;;;5.07;53.84
66385;BME280;53426;55.872;37.462;2023-03-21T05:58:48;98662.41;;;5.12;53.50
66385;BME280;53426;55.872;37.462;2023-03-21T06:01:14;98662.28;;;5.24;53.84
66385;BME280;53426;55.872;37.462;2023-03-21T06:03:47;98663.13;;;5.36;53.72
66385;BME280;53426;55.872;37.462;2023-03-21T06:06:25;98671.75;;;5.49;54.20
66385;BME280;53426;55.872;37.462;2023-03-21T06:08:57;98658.16;;;5.44;53.94
66385;BME280;53426;55.872;37.462;2023-03-21T06:11:27;98670.66;;;5.52;54.60
66385;BME280;53426;55.872;37.462;2023-03-21T06:14:10;98675.22;;;5.61;53.93
66385;BME280;53426;55.872;37.462;2023-03-21T06:16:36;98669.72;;;5.64;53.98
66385;BME280;53426;55.872;37.462;2023-03-21T06:19:03;98638.09;;;5.43;54.44
66385;BME280;53426;55.872;37.462;2023-03-21T06:21:51;98665.91;;;5.57;54.51
66385;BME280;53426;55.872;37.462;2023-03-21T06:24:19;98664.72;;;5.61;53.86
66385;BME280;53426;55.872;37.462;2023-03-21T06:26:45;98664.59;;;5.62;54.63
66385;BME280;53426;55.872;37.462;2023-03-21T06:29:11;98656.38;;;5.56;54.90
66385;BME280;53426;55.872;37.462;2023-03-21T06:31:41;98666.41;;;5.62;54.89
66385;BME280;53426;55.872;37.462;2023-03-21T06:34:07;98659.22;;;5.64;55.19
66385;BME280;53426;55.872;37.462;2023-03-21T06:36:35;98662.44;;;5.78;55.34
66385;BME280;53426;55.872;37.462;2023-03-21T06:39:01;98613.88;;;5.62;55.69
66385;BME280;53426;55.872;37.462;2023-03-21T06:41:27;98628.19;;;5.91;55.55
66385;BME280;53426;55.872;37.462;2023-03-21T06:43:58;98647.47;;;6.23;56.57
66385;BME280;53426;55.872;37.462;2023-03-21T06:46:25;98644.28;;;6.52;56.01
66385;BME280;53426;55.872;37.462;2023-03-21T06:48:51;98629.44;;;6.62;55.95
66385;BME280;53426;55.872;37.462;2023-03-21T06:51:17;98631.78;;;6.97;55.97
66385;BME280;53426;55.872;37.462;2023-03-21T06:54:07;98626.78;;;7.45;54.87
66385;BME280;53426;55.872;37.462;2023-03-21T06:56:52;98618.28;;;7.62;54.42
66385;BME280;53426;55.872;37.462;2023-03-21T06:59:25;98615.25;;;7.76;54.06
66385;BME280;53426;55.872;37.462;2023-03-21T07:01:56;98620.22;;;8.10;53.53
66385;BME280;53426;55.872;37.462;2023-03-21T07:04:22;98613.44;;;8.07;53.59
66385;BME280;53426;55.872;37.462;2023-03-21T07:07:10;98617.38;;;8.42;53.30
66385;BME280;53426;55.872;37.462;2023-03-21T07:09:36;98571.38;;;8.25;53.65
66385;BME280;53426;55.872;37.462;2023-03-21T07:12:04;98612.25;;;8.50;54.13
66385;BME280;53426;55.872;37.462;2023-03-21T07:14:44;98603.63;;;8.38;53.74
66385;BME280;53426;55.872;37.462;2023-03-21T07:17:10;98616.59;;;8.11;55.30
66385;BME280;53426;55.872;37.462;2023-03-21T07:19:36;98621.59;;;8.14;55.61
66385;BME280;53426;55.872;37.462;2023-03-21T07:22:02;98620.38;;;8.18;56.12
66385;BME280;53426;55.872;37.462;2023-03-21T07:24:28;98623.97;;;8.07;56.61
66385;BME280;53426;55.872;37.462;2023-03-21T07:26:53;98597.97;;;7.93;56.78
66385;BME280;53426;55.872;37.462;2023-03-21T07:29:21;98606.09;;;7.80;57.38
66385;BME280;53426;55.872;37.462;2023-03-21T07:31:48;98599.03;;;7.71;57.93
66385;BME280;53426;55.872;37.462;2023-03-21T07:34:14;98600.25;;;7.67;58.53
66385;BME280;53426;55.872;37.462;2023-03-21T07:36:42;98614.75;;;7.52;58.71
66385;BME280;53426;55.872;37.462;2023-03-21T07:39:08;98598.53;;;7.47;59.53
66385;BME280;53426;55.872;37.462;2023-03-21T07:41:34;98594.78;;;7.49;59.33
66385;BME280;53426;55.872;37.462;2023-03-21T07:44:12;98597.03;;;7.24;59.40
66385;BME280;53426;55.872;37.462;2023-03-21T07:46:41;98599.22;;;7.19;60.06
66385;BME280;53426;55.872;37.462;2023-03-21T07:49:08;98587.53;;;7.11;60.13
66385;BME280;53426;55.872;37.462;2023-03-21T07:51:34;98590.28;;;7.10;59.84
66385;BME280;53426;55.872;37.462;2023-03-21T07:54:01;98600.34;;;7.26;61.12
66385;BME280;53426;55.872;37.462;2023-03-21T07:56:27;98587.09;;;7.37;59.97
66385;BME280;53426;55.872;37.462;2023-03-21T07:58:53;98602.69;;;7.49;60.42
66385;BME280;53426;55.872;37.462;2023-03-21T08:01:19;98574.47;;;7.31;59.80
66385;BME280;53426;55.872;37.462;2023-03-21T08:03:46;98591.84;;;7.43;60.69
66385;BME280;53426;55.872;37.462;2023-03-21T08:06:12;98590.88;;;7.13;61.24
66385;BME280;53426;55.872;37.462;2023-03-21T08:08:38;98584.78;;;7.13;61.58
66385;BME280;53426;55.872;37.462;2023-03-21T08:11:05;98584.00;;;7.32;62.04
66385;BME280;53426;55.872;37.462;2023-03-21T08:13:32;98586.09;;;7.28;61.80
66385;BME280;53426;55.872;37.462;2023-03-21T08:15:58;98592.31;;;7.27;62.29
66385;BME280;53426;55.872;37.462;2023-03-21T08:18:23;98584.19;;;7.09;62.24
66385;BME280;53426;55.872;37.462;2023-03-21T08:20:51;98584.09;;;7.21;62.72
66385;BME280;53426;55.872;37.462;2023-03-21T08:23:17;98582.63;;;7.28;63.10
66385;BME280;53426;55.872;37.462;2023-03-21T08:25:43;98588.59;;;7.30;63.22
66385;BME280;53426;55.872;37.462;2023-03-21T08:28:09;98578.94;;;7.40;62.85
66385;BME280;53426;55.872;37.462;2023-03-21T08:30:36;98549.41;;;7.36;63.36
66385;BME280;53426;55.872;37.462;2023-03-21T08:33:03;98589.47;;;7.40;63.23
66385;BME280;53426;55.872;37.462;2023-03-21T08:35:29;98584.38;;;7.48;63.04
66385;BME280;53426;55.872;37.462;2023-03-21T08:37:56;98576.34;;;7.49;63.54
66385;BME280;53426;55.872;37.462;2023-03-21T08:40:22;98588.13;;;7.95;62.94
66385;BME280;53426;55.872;37.462;2023-03-21T08:42:49;98582.88;;;8.14;62.77
66385;BME280;53426;55.872;37.462;2023-03-21T08:45:16;98579.06;;;8.47;61.08
66385;BME280;53426;55.872;37.462;2023-03-21T08:47:42;98578.63;;;8.71;60.60
66385;BME280;53426;55.872;37.462;2023-03-21T08:50:11;98560.84;;;8.82;59.59
66385;BME280;53426;55.872;37.462;2023-03-21T08:52:38;98584.47;;;8.74;60.00
66385;BME280;53426;55.872;37.462;2023-03-21T08:55:04;98574.59;;;8.57;60.43
66385;BME280;53426;55.872;37.462;2023-03-21T08:57:30;98575.84;;;8.63;60.07
66385;BME280;53426;55.872;37.462;2023-03-21T08:59:56;98570.16;;;8.29;60.27
66385;BME280;53426;55.872;37.462;2023-03-21T09:02:21;98573.22;;;8.53;60.51
66385;BME280;53426;55.872;37.462;2023-03-21T09:04:47;98569.34;;;8.67;59.57
66385;BME280;53426;55.872;37.462;2023-03-21T09:07:13;98562.66;;;8.82;58.80
66385;BME280;53426;55.872;37.462;2023-03-21T09:09:42;98572.63;;;8.78;58.59
66385;BME280;53426;55.872;37.462;2023-03-21T09:12:08;98558.22;;;8.82;59.07
66385;BME280;53426;55.872;37.462;2023-03-21T09:14:34;98561.34;;;8.96;58.29
66385;BME280;53426;55.872;37.462;2023-03-21T09:17:01;98559.53;;;9.06;57.78
66385;BME280;53426;55.872;37.462;2023-03-21T09:19:27;98558.84;;;9.04;57.79
66385;BME280;53426;55.872;37.462;2023-03-21T09:21:54;98555.69;;;8.91;57.93
66385;BME280;53426;55.872;37.462;2023-03-21T09:24:20;98524.72;;;8.83;58.05
66385;BME280;53426;55.872;37.462;2023-03-21T09:26:46;98561.81;;;9.28;57.52
66385;BME280;53426;55.872;37.462;2023-03-21T09:29:16;98550.22;;;9.76;56.12
66385;BME280;53426;55.872;37.462;2023-03-21T09:31:43;98549.94;;;10.41;54.36
66385;BME280;53426;55.872;37.462;2023-03-21T09:34:11;98545.72;;;10.31;54.40
66385;BME280;53426;55.872;37.462;2023-03-21T09:36:40;98542.19;;;10.66;53.84
66385;BME280;53426;55.872;37.462;2023-03-21T09:39:09;98542.41;;;11.24;51.84
66385;BME280;53426;55.872;37.462;2023-03-21T09:42:26;98530.50;;;11.62;51.13
66385;BME280;53426;55.872;37.462;2023-03-21T09:47:52;98533.19;;;12.28;49.06
66385;BME280;53426;55.872;37.462;2023-03-21T09:50:25;98535.41;;;12.65;48.07
66385;BME280;53426;55.872;37.462;2023-03-21T09:53:00;98531.72;;;12.42;48.38
66385;BME280;53426;55.872;37.462;2023-03-21T09:55:29;98530.09;;;12.49;48.04
66385;BME280;53426;55.872;37.462;2023-03-21T09:58:06;98528.56;;;12.30;48.05
66385;BME280;53426;55.872;37.462;2023-03-21T10:00:36;98520.66;;;11.80;49.38
66385;BME280;53426;55.872;37.462;2023-03-21T10:03:07;98520.56;;;11.56;50.12
66385;BME280;53426;55.872;37.462;2023-03-21T10:05:42;98512.50;;;11.73;48.83
66385;BME280;53426;55.872;37.462;2023-03-21T10:08:19;98495.88;;;12.05;48.90
66385;BME280;53426;55.872;37.462;2023-03-21T10:10:53;98522.13;;;12.49;47.82
66385;BME280;53426;55.872;37.462;2023-03-21T10:13:28;98523.59;;;12.84;47.35
66385;BME280;53426;55.872;37.462;2023-03-21T10:16:00;98507.94;;;13.21;45.54
66385;BME280;53426;55.872;37.462;2023-03-21T10:18:28;98518.22;;;14.02;43.88
66385;BME280;53426;55.872;37.462;2023-03-21T10:20:55;98504.13;;;15.52;41.01
66385;BME280;53426;55.872;37.462;2023-03-21T10:23:25;98500.00;;;16.42;39.16
66385;BME280;53426;55.872;37.462;2023-03-21T10:26:01;98487.44;;;17.13;37.83
66385;BME280;53426;55.872;37.462;2023-03-21T10:28:33;98482.38;;;16.90;38.11
66385;BME280;53426;55.872;37.462;2023-03-21T10:31:02;98478.56;;;16.78;37.15
66385;BME280;53426;55.872;37.462;2023-03-21T10:33:33;98489.53;;;16.41;38.59
66385;BME280;53426;55.872;37.462;2023-03-21T10:36:16;98484.06;;;15.56;38.95
66385;BME280;53426;55.872;37.462;2023-03-21T10:38:50;98478.06;;;15.68;38.69
66385;BME280;53426;55.872;37.462;2023-03-21T10:41:17;98473.72;;;15.67;37.83
66385;BME280;53426;55.872;37.462;2023-03-21T10:43:46;98474.50;;;15.97;36.76
66385;BME280;53426;55.872;37.462;2023-03-21T10:46:17;98473.09;;;16.44;36.34
66385;BME280;53426;55.872;37.462;2023-03-21T10:48:52;98454.16;;;16.17;35.79
66385;BME280;53426;55.872;37.462;2023-03-21T10:51:20;98478.13;;;16.32;36.06
66385;BME280;53426;55.872;37.462;2023-03-21T10:53:53;98471.69;;;17.25;34.60
66385;BME280;53426;55.872;37.462;2023-03-21T10:56:25;98467.09;;;18.01;33.48
66385;BME280;53426;55.872;37.462;2023-03-21T10:58:53;98455.66;;;18.72;31.92
66385;BME280;53426;55.872;37.462;2023-03-21T11:01:49;98472.97;;;19.03;31.68
66385;BME280;53426;55.872;37.462;2023-03-21T11:04:21;98465.56;;;18.85;31.32
66385;BME280;53426;55.872;37.462;2023-03-21T11:06:53;98465.50;;;19.25;30.90
66385;BME280;53426;55.872;37.462;2023-03-21T11:09:22;98462.44;;;18.95;31.10
66385;BME280;53426;55.872;37.462;2023-03-21T11:11:55;98445.47;;;19.27;30.63
66385;BME280;53426;55.872;37.462;2023-03-21T11:14:34;98449.88;;;18.49;31.54
66385;BME280;53426;55.872;37.462;2023-03-21T11:17:00;98440.75;;;17.15;33.03
66385;BME280;53426;55.872;37.462;2023-03-21T11:19:31;98445.81;;;16.06;35.25
66385;BME280;53426;55.872;37.462;2023-03-21T11:21:58;98463.13;;;15.74;35.72
66385;BME280;53426;55.872;37.462;2023-03-21T11:24:29;98447.03;;;14.64;36.84
66385;BME280;53426;55.872;37.462;2023-03-21T11:26:56;98435.13;;;14.38;37.45
66385;BME280;53426;55.872;37.462;2023-03-21T11:29:32;98439.25;;;13.72;38.19
66385;BME280;53426;55.872;37.462;2023-03-21T11:32:10;98453.19;;;12.80;39.59
66385;BME280;53426;55.872;37.462;2023-03-21T11:35:03;98458.53;;;12.64;40.64
66385;BME280;53426;55.872;37.462;2023-03-21T11:37:38;98458.22;;;12.18;40.98
66385;BME280;53426;55.872;37.462;2023-03-21T11:40:27;98456.50;;;11.77;41.36
66385;BME280;53426;55.872;37.462;2023-03-21T11:42:56;98454.94;;;11.58;42.18
66385;BME280;53426;55.872;37.462;2023-03-21T11:45:26;98457.28;;;11.69;42.01
66385;BME280;53426;55.872;37.462;2023-03-21T11:47:54;98453.97;;;11.67;42.03
66385;BME280;53426;55.872;37.462;2023-03-21T11:50:34;98447.44;;;12.11;41.32
66385;BME280;53426;55.872;37.462;2023-03-21T12:01:57;98445.06;;;11.76;40.62
66385;BME280;53426;55.872;37.462;2023-03-21T12:07:01;98435.78;;;10.88;41.20
66385;BME280;53426;55.872;37.462;2023-03-21T12:09:45;98401.28;;;10.46;41.12
66385;BME280;53426;55.872;37.462;2023-03-21T12:12:37;98419.63;;;10.47;41.64
66385;BME280;53426;55.872;37.462;2023-03-21T12:18:08;98412.63;;;10.64;41.33
66385;BME280;53426;55.872;37.462;2023-03-21T12:28:45;98413.00;;;10.43;41.88
66385;BME280;53426;55.872;37.462;2023-03-21T12:31:35;98397.81;;;10.45;42.19
66385;BME280;53426;55.872;37.462;2023-03-21T12:39:45;98400.28;;;10.03;41.95
66385;BME280;53426;55.872;37.462;2023-03-21T12:45:19;98388.94;;;9.93;41.77
66385;BME280;53426;55.872;37.462;2023-03-21T12:47:52;98386.38;;;9.66;41.85
66385;BME280;53426;55.872;37.462;2023-03-21T12:50:32;98390.78;;;9.75;41.84
66385;BME280;53426;55.872;37.462;2023-03-21T12:56:09;98398.41;;;9.78;41.33
66385;BME280;53426;55.872;37.462;2023-03-21T12:58:54;98387.06;;;9.68;41.95
66385;BME280;53426;55.872;37.462;2023-03-21T13:01:23;98392.75;;;9.73;42.29
66385;BME280;53426;55.872;37.462;2023-03-21T13:06:45;98383.84;;;9.74;41.75
66385;BME280;53426;55.872;37.462;2023-03-21T13:09:30;98371.31;;;9.76;41.51
66385;BME280;53426;55.872;37.462;2023-03-21T13:12:05;98365.41;;;9.64;41.68
66385;BME280;53426;55.872;37.462;2023-03-21T13:14:38;98374.75;;;9.77;41.59
66385;BME280;53426;55.872;37.462;2023-03-21T13:17:29;98376.97;;;9.81;40.97
66385;BME280;53426;55.872;37.462;2023-03-21T13:20:18;98372.66;;;9.80;41.54
66385;BME280;53426;55.872;37.462;2023-03-21T13:22:47;98366.91;;;9.67;41.41
66385;BME280;53426;55.872;37.462;2023-03-21T13:25:18;98385.25;;;9.69;41.28
66385;BME280;53426;55.872;37.462;2023-03-21T13:27:54;98380.25;;;9.65;41.22
66385;BME280;53426;55.872;37.462;2023-03-21T13:30:26;98379.47;;;9.65;41.72
66385;BME280;53426;55.872;37.462;2023-03-21T13:33:10;98386.94;;;9.70;41.77
66385;BME280;53426;55.872;37.462;2023-03-21T13:35:41;98386.75;;;9.71;41.37
66385;BME280;53426;55.872;37.462;2023-03-21T13:38:13;98380.91;;;9.59;41.23
66385;BME280;53426;55.872;37.462;2023-03-21T13:40:48;98381.19;;;9.56;41.86
66385;BME280;53426;55.872;37.462;2023-03-21T13:43:34;98382.09;;;9.65;41.35
66385;BME280;53426;55.872;37.462;2023-03-21T13:48:59;98364.81;;;9.71;41.18
66385;BME280;53426;55.872;37.462;2023-03-21T13:59:14;98366.47;;;9.36;40.43
66385;BME280;53426;55.872;37.462;2023-03-21T14:04:38;98365.59;;;9.18;40.33
66385;BME280;53426;55.872;37.462;2023-03-21T14:07:40;98359.34;;;9.19;40.92
66385;BME280;53426;55.872;37.462;2023-03-21T14:10:19;98365.34;;;9.11;40.49
66385;BME280;53426;55.872;37.462;2023-03-21T14:12:47;98363.84;;;9.09;40.44
66385;BME280;53426;55.872;37.462;2023-03-21T14:15:23;98351.34;;;9.11;40.10
66385;BME280;53426;55.872;37.462;2023-03-21T14:17:59;98349.94;;;9.07;40.20
66385;BME280;53426;55.872;37.462;2023-03-21T14:20:31;98366.16;;;9.21;40.11
66385;BME280;53426;55.872;37.462;2023-03-21T14:22:58;98357.91;;;9.24;39.54
66385;BME280;53426;55.872;37.462;2023-03-21T14:25:30;98360.09;;;9.29;40.14
66385;BME280;53426;55.872;37.462;2023-03-21T14:27:59;98356.16;;;9.33;39.41
66385;BME280;53426;55.872;37.462;2023-03-21T14:30:33;98356.66;;;9.46;39.49
66385;BME280;53426;55.872;37.462;2023-03-21T14:33:04;98345.78;;;9.32;39.38
66385;BME280;53426;55.872;37.462;2023-03-21T14:35:32;98338.84;;;9.31;39.42
66385;BME280;53426;55.872;37.462;2023-03-21T14:38:06;98365.25;;;9.48;39.11
66385;BME280;53426;55.872;37.462;2023-03-21T14:40:33;98353.50;;;9.43;39.16
66385;BME280;53426;55.872;37.462;2023-03-21T14:43:06;98358.06;;;9.41;39.03
66385;BME280;53426;55.872;37.462;2023-03-21T14:45:34;98329.31;;;9.20;39.14